PWSweather.com
Personal Weather Stations
Station Observations
KOHCLEVE171
Cleveland, OH

Cleveland, OH

Lat: 41.48646164, Lon: -81.46408081

Elevation: 1059

Station Type:

High Low Average
Temperature 42.1°F5.6°C 34.5°F1.4°C 37.5°F3.1°C
Dew Point 39.7°F4.3°C 26.1°F-3.3°C 30.0°F-1.1°C
Winds 10.1 mph 16.3 kmh Calm Calm 3.0 mph WSW4.8 kmh WSW
Wind Gusts 20.1 mph32.3 kmh -- 7.0 mph11.3 kmh
Humidity 96% 58% 74%
Pressure 30.34 in1027.4 mb 29.87 in1011.5 mb -
Precipitation 0.00 in0.0 mm - -
Hour Temp Dew Point Humidity Winds Wind Gusts Pressure Precip Precip Rate Daily Precip Total
12:04 AM 40.6°F4.8°C 39.6°F4.2°C 96% 2.5 mph SW4.0 kmh SW 4.9 mph7.9 kmh 29.84 in1010.5 mb 0.00 in0.0 mm 0.00 in0.0 mm 0.18 in4.6 mm
12:09 AM 40.6°F4.8°C 39.6°F4.2°C 96% 2.7 mph WNW4.3 kmh WNW 6.0 mph9.7 kmh 29.84 in1010.5 mb 0.00 in0.0 mm 0.00 in0.0 mm 0.18 in4.6 mm
12:14 AM 40.8°F4.9°C 40.1°F4.5°C 97% 4.0 mph WSW6.4 kmh WSW 7.6 mph12.2 kmh 29.85 in1010.8 mb 0.00 in0.0 mm 0.00 in0.0 mm 0.18 in4.6 mm
12:19 AM 41.0°F5.0°C 39.9°F4.4°C 96% 4.5 mph NW7.2 kmh NW 9.4 mph15.1 kmh 29.85 in1010.8 mb 0.00 in0.0 mm 0.00 in0.0 mm 0.18 in4.6 mm
12:24 AM 41.0°F5.0°C 40.3°F4.6°C 97% 2.5 mph NW4.0 kmh NW 5.6 mph9.0 kmh 29.85 in1010.8 mb 0.00 in0.0 mm 0.00 in0.0 mm 0.18 in4.6 mm
12:29 AM 41.2°F5.1°C 40.5°F4.7°C 97% 3.6 mph NNW5.8 kmh NNW 7.4 mph11.9 kmh 29.85 in1010.8 mb 0.00 in0.0 mm 0.00 in0.0 mm 0.18 in4.6 mm
12:34 AM 41.0°F5.0°C 39.9°F4.4°C 96% 3.8 mph W6.1 kmh W 6.9 mph11.1 kmh 29.85 in1010.8 mb 0.00 in0.0 mm 0.00 in0.0 mm 0.18 in4.6 mm
12:39 AM 41.0°F5.0°C 39.9°F4.4°C 96% 2.5 mph NW4.0 kmh NW 6.3 mph10.1 kmh 29.85 in1010.8 mb 0.00 in0.0 mm 0.00 in0.0 mm 0.18 in4.6 mm
12:44 AM 41.2°F5.1°C 40.1°F4.5°C 96% 3.6 mph W5.8 kmh W 10.1 mph16.3 kmh 29.85 in1010.8 mb 0.00 in0.0 mm 0.00 in0.0 mm 0.18 in4.6 mm
12:49 AM 41.0°F5.0°C 39.9°F4.4°C 96% 2.7 mph WNW4.3 kmh WNW 8.1 mph13.0 kmh 29.85 in1010.8 mb 0.00 in0.0 mm 0.00 in0.0 mm 0.18 in4.6 mm
12:54 AM 40.8°F4.9°C 39.7°F4.3°C 96% 3.6 mph W5.8 kmh W 9.6 mph15.4 kmh 29.86 in1011.2 mb 0.00 in0.0 mm 0.00 in0.0 mm 0.18 in4.6 mm
01:04 AM 40.8°F4.9°C 39.7°F4.3°C 96% 3.8 mph NNW6.1 kmh NNW 8.1 mph13.0 kmh 29.87 in1011.5 mb 0.00 in0.0 mm 0.00 in0.0 mm 0.00 in0.0 mm
01:09 AM 40.8°F4.9°C 39.2°F4.0°C 94% 1.8 mph W2.9 kmh W 5.1 mph8.2 kmh 29.87 in1011.5 mb 0.00 in0.0 mm 0.00 in0.0 mm 0.00 in0.0 mm
01:14 AM 40.8°F4.9°C 39.2°F4.0°C 94% 2.2 mph W3.5 kmh W 3.6 mph5.8 kmh 29.88 in1011.9 mb 0.00 in0.0 mm 0.00 in0.0 mm 0.00 in0.0 mm
01:19 AM 40.8°F4.9°C 39.2°F4.0°C 94% 2.7 mph NW4.3 kmh NW 5.6 mph9.0 kmh 29.88 in1011.9 mb 0.00 in0.0 mm 0.00 in0.0 mm 0.00 in0.0 mm
01:24 AM 40.6°F4.8°C 39.0°F3.9°C 94% 4.3 mph NW6.9 kmh NW 6.5 mph10.5 kmh 29.88 in1011.9 mb 0.00 in0.0 mm 0.00 in0.0 mm 0.00 in0.0 mm
01:29 AM 40.6°F4.8°C 38.8°F3.8°C 93% 4.3 mph WNW6.9 kmh WNW 10.5 mph16.9 kmh 29.89 in1012.2 mb 0.00 in0.0 mm 0.00 in0.0 mm 0.00 in0.0 mm
01:34 AM 40.5°F4.7°C 38.7°F3.7°C 93% 2.7 mph SW4.3 kmh SW 5.1 mph8.2 kmh 29.89 in1012.2 mb 0.00 in0.0 mm 0.00 in0.0 mm 0.00 in0.0 mm
01:39 AM 40.5°F4.7°C 38.3°F3.5°C 92% 6.0 mph WSW9.7 kmh WSW 14.3 mph23.0 kmh 29.89 in1012.2 mb 0.00 in0.0 mm 0.00 in0.0 mm 0.00 in0.0 mm
01:44 AM 40.6°F4.8°C 38.3°F3.5°C 91% 1.8 mph WNW2.9 kmh WNW 4.7 mph7.6 kmh 29.90 in1012.5 mb 0.00 in0.0 mm 0.00 in0.0 mm 0.00 in0.0 mm
01:49 AM 40.5°F4.7°C 38.1°F3.4°C 91% 1.8 mph W2.9 kmh W 3.4 mph5.5 kmh 29.90 in1012.5 mb 0.00 in0.0 mm 0.00 in0.0 mm 0.00 in0.0 mm
01:54 AM 40.3°F4.6°C 37.9°F3.3°C 91% 5.6 mph NW9.0 kmh NW 11.9 mph19.2 kmh 29.91 in1012.9 mb 0.00 in0.0 mm 0.00 in0.0 mm 0.00 in0.0 mm
01:59 AM 40.1°F4.5°C 37.0°F2.8°C 89% 3.8 mph WNW6.1 kmh WNW 12.5 mph20.1 kmh 29.91 in1012.9 mb 0.00 in0.0 mm 0.00 in0.0 mm 0.00 in0.0 mm
02:04 AM 39.9°F4.4°C 36.7°F2.6°C 88% 5.4 mph WSW8.7 kmh WSW 10.5 mph16.9 kmh 29.91 in1012.9 mb 0.00 in0.0 mm 0.00 in0.0 mm 0.00 in0.0 mm
02:09 AM 39.7°F4.3°C 36.1°F2.3°C 87% 3.8 mph WSW6.1 kmh WSW 10.7 mph17.2 kmh 29.91 in1012.9 mb 0.00 in0.0 mm 0.00 in0.0 mm 0.00 in0.0 mm
02:14 AM 39.7°F4.3°C 36.1°F2.3°C 87% 6.5 mph WSW10.5 kmh WSW 11.9 mph19.2 kmh 29.92 in1013.2 mb 0.00 in0.0 mm 0.00 in0.0 mm 0.00 in0.0 mm
02:19 AM 39.6°F4.2°C 35.8°F2.1°C 86% 2.7 mph NW4.3 kmh NW 4.3 mph6.9 kmh 29.92 in1013.2 mb 0.00 in0.0 mm 0.00 in0.0 mm 0.00 in0.0 mm
02:24 AM 39.6°F4.2°C 35.8°F2.1°C 86% 2.5 mph WNW4.0 kmh WNW 4.0 mph6.4 kmh 29.92 in1013.2 mb 0.00 in0.0 mm 0.00 in0.0 mm 0.00 in0.0 mm
02:29 AM 39.4°F4.1°C 35.6°F2.0°C 86% 3.4 mph WSW5.5 kmh WSW 6.0 mph9.7 kmh 29.93 in1013.5 mb 0.00 in0.0 mm 0.00 in0.0 mm 0.00 in0.0 mm
02:34 AM 39.4°F4.1°C 35.6°F2.0°C 86% 2.0 mph NW3.2 kmh NW 4.5 mph7.2 kmh 29.93 in1013.5 mb 0.00 in0.0 mm 0.00 in0.0 mm 0.00 in0.0 mm
02:39 AM 39.2°F4.0°C 35.4°F1.9°C 86% 2.5 mph WSW4.0 kmh WSW 5.6 mph9.0 kmh 29.93 in1013.5 mb 0.00 in0.0 mm 0.00 in0.0 mm 0.00 in0.0 mm
02:44 AM 39.2°F4.0°C 35.4°F1.9°C 86% 2.2 mph SW3.5 kmh SW 5.1 mph8.2 kmh 29.93 in1013.5 mb 0.00 in0.0 mm 0.00 in0.0 mm 0.00 in0.0 mm
02:49 AM 39.0°F3.9°C 35.2°F1.8°C 86% 4.0 mph N6.4 kmh N 8.9 mph14.3 kmh 29.94 in1013.9 mb 0.00 in0.0 mm 0.00 in0.0 mm 0.00 in0.0 mm
02:54 AM 38.8°F3.8°C 35.1°F1.7°C 86% 5.4 mph NNW8.7 kmh NNW 10.7 mph17.2 kmh 29.94 in1013.9 mb 0.00 in0.0 mm 0.00 in0.0 mm 0.00 in0.0 mm
02:59 AM 38.8°F3.8°C 35.1°F1.7°C 86% 3.4 mph NNW5.5 kmh NNW 8.3 mph13.4 kmh 29.95 in1014.2 mb 0.00 in0.0 mm 0.00 in0.0 mm 0.00 in0.0 mm
03:04 AM 38.8°F3.8°C 35.1°F1.7°C 86% 2.0 mph WSW3.2 kmh WSW 4.3 mph6.9 kmh 29.95 in1014.2 mb 0.00 in0.0 mm 0.00 in0.0 mm 0.00 in0.0 mm
03:09 AM 38.7°F3.7°C 34.5°F1.4°C 85% 4.3 mph S6.9 kmh S 7.2 mph11.6 kmh 29.95 in1014.2 mb 0.00 in0.0 mm 0.00 in0.0 mm 0.00 in0.0 mm
03:14 AM 38.5°F3.6°C 34.3°F1.3°C 85% 2.5 mph SW4.0 kmh SW 7.2 mph11.6 kmh 29.96 in1014.6 mb 0.00 in0.0 mm 0.00 in0.0 mm 0.00 in0.0 mm
03:19 AM 38.5°F3.6°C 34.3°F1.3°C 85% 2.2 mph W3.5 kmh W 9.2 mph14.8 kmh 29.96 in1014.6 mb 0.00 in0.0 mm 0.00 in0.0 mm 0.00 in0.0 mm
03:24 AM 38.5°F3.6°C 34.3°F1.3°C 85% 3.1 mph N5.0 kmh N 7.4 mph11.9 kmh 29.96 in1014.6 mb 0.00 in0.0 mm 0.00 in0.0 mm 0.00 in0.0 mm
03:29 AM 38.3°F3.5°C 34.2°F1.2°C 85% 3.1 mph W5.0 kmh W 7.6 mph12.2 kmh 29.97 in1014.9 mb 0.00 in0.0 mm 0.00 in0.0 mm 0.00 in0.0 mm
03:34 AM 38.1°F3.4°C 33.8°F1.0°C 84% 5.6 mph W9.0 kmh W 16.8 mph27.0 kmh 29.96 in1014.6 mb 0.00 in0.0 mm 0.00 in0.0 mm 0.00 in0.0 mm
03:39 AM 37.9°F3.3°C 33.6°F0.9°C 84% 5.4 mph NW8.7 kmh NW 13.2 mph21.2 kmh 29.97 in1014.9 mb 0.00 in0.0 mm 0.00 in0.0 mm 0.00 in0.0 mm
03:44 AM 37.8°F3.2°C 33.4°F0.8°C 84% 2.5 mph NW4.0 kmh NW 6.0 mph9.7 kmh 29.97 in1014.9 mb 0.00 in0.0 mm 0.00 in0.0 mm 0.00 in0.0 mm
03:49 AM 37.6°F3.1°C 33.3°F0.7°C 84% 2.7 mph NNW4.3 kmh NNW 9.4 mph15.1 kmh 29.97 in1014.9 mb 0.00 in0.0 mm 0.00 in0.0 mm 0.00 in0.0 mm
03:54 AM 37.6°F3.1°C 33.3°F0.7°C 84% 3.6 mph NNW5.8 kmh NNW 9.4 mph15.1 kmh 29.98 in1015.2 mb 0.00 in0.0 mm 0.00 in0.0 mm 0.00 in0.0 mm
03:59 AM 37.4°F3.0°C 33.1°F0.6°C 84% 2.0 mph NW3.2 kmh NW 4.5 mph7.2 kmh 29.98 in1015.2 mb 0.00 in0.0 mm 0.00 in0.0 mm 0.00 in0.0 mm
04:04 AM 37.4°F3.0°C 33.1°F0.6°C 84% 3.8 mph WSW6.1 kmh WSW 12.3 mph19.8 kmh 29.98 in1015.2 mb 0.00 in0.0 mm 0.00 in0.0 mm 0.00 in0.0 mm
04:09 AM 37.4°F3.0°C 33.1°F0.6°C 84% 1.1 mph NW1.8 kmh NW 2.5 mph4.0 kmh 29.98 in1015.2 mb 0.00 in0.0 mm 0.00 in0.0 mm 0.00 in0.0 mm
04:14 AM 37.2°F2.9°C 33.1°F0.6°C 85% 2.5 mph WSW4.0 kmh WSW 6.7 mph10.8 kmh 29.98 in1015.2 mb 0.00 in0.0 mm 0.00 in0.0 mm 0.00 in0.0 mm
04:19 AM 37.2°F2.9°C 33.1°F0.6°C 85% 1.3 mph NNW2.1 kmh NNW 2.7 mph4.3 kmh 29.98 in1015.2 mb 0.00 in0.0 mm 0.00 in0.0 mm 0.00 in0.0 mm
04:24 AM 37.0°F2.8°C 32.9°F0.5°C 85% 1.6 mph WNW2.6 kmh WNW 4.9 mph7.9 kmh 29.99 in1015.6 mb 0.00 in0.0 mm 0.00 in0.0 mm 0.00 in0.0 mm
04:29 AM 37.0°F2.8°C 32.9°F0.5°C 85% 0.9 mph NE1.4 kmh NE 1.8 mph2.9 kmh 29.99 in1015.6 mb 0.00 in0.0 mm 0.00 in0.0 mm 0.00 in0.0 mm
04:34 AM 37.2°F2.9°C 33.1°F0.6°C 85% 1.6 mph WSW2.6 kmh WSW 3.1 mph5.0 kmh 30.00 in1015.9 mb 0.00 in0.0 mm 0.00 in0.0 mm 0.00 in0.0 mm
04:39 AM 37.0°F2.8°C 32.9°F0.5°C 85% 3.4 mph SSW5.5 kmh SSW 4.9 mph7.9 kmh 29.99 in1015.6 mb 0.00 in0.0 mm 0.00 in0.0 mm 0.00 in0.0 mm
04:44 AM 36.9°F2.7°C 32.7°F0.4°C 85% 2.7 mph S4.3 kmh S 5.1 mph8.2 kmh 30.00 in1015.9 mb 0.00 in0.0 mm 0.00 in0.0 mm 0.00 in0.0 mm
04:49 AM 36.9°F2.7°C 32.5°F0.3°C 84% 4.9 mph WSW7.9 kmh WSW 8.9 mph14.3 kmh 29.99 in1015.6 mb 0.00 in0.0 mm 0.00 in0.0 mm 0.00 in0.0 mm
04:54 AM 36.9°F2.7°C 32.5°F0.3°C 84% 2.2 mph N3.5 kmh N 4.3 mph6.9 kmh 30.00 in1015.9 mb 0.00 in0.0 mm 0.00 in0.0 mm 0.00 in0.0 mm
04:59 AM 36.5°F2.5°C 32.2°F0.1°C 84% 2.0 mph WSW3.2 kmh WSW 3.4 mph5.5 kmh 30.00 in1015.9 mb 0.00 in0.0 mm 0.00 in0.0 mm 0.00 in0.0 mm
05:04 AM 36.5°F2.5°C 32.2°F0.1°C 84% 5.6 mph SSW9.0 kmh SSW 18.1 mph29.1 kmh 30.01 in1016.3 mb 0.00 in0.0 mm 0.00 in0.0 mm 0.00 in0.0 mm
05:09 AM 36.5°F2.5°C 32.2°F0.1°C 84% 1.6 mph S2.6 kmh S 3.6 mph5.8 kmh 30.00 in1015.9 mb 0.00 in0.0 mm 0.00 in0.0 mm 0.00 in0.0 mm
05:14 AM 36.5°F2.5°C 32.2°F0.1°C 84% 1.8 mph N2.9 kmh N 2.9 mph4.7 kmh 30.01 in1016.3 mb 0.00 in0.0 mm 0.00 in0.0 mm 0.00 in0.0 mm
05:19 AM 36.3°F2.4°C 32.0°F0.0°C 84% 2.5 mph S4.0 kmh S 6.3 mph10.1 kmh 30.01 in1016.3 mb 0.00 in0.0 mm 0.00 in0.0 mm 0.00 in0.0 mm
05:24 AM 36.3°F2.4°C 32.0°F0.0°C 84% 4.3 mph W6.9 kmh W 10.7 mph17.2 kmh 30.00 in1015.9 mb 0.00 in0.0 mm 0.00 in0.0 mm 0.00 in0.0 mm
05:29 AM 36.3°F2.4°C 31.6°F-0.2°C 83% 2.2 mph SW3.5 kmh SW 3.6 mph5.8 kmh 30.01 in1016.3 mb 0.00 in0.0 mm 0.00 in0.0 mm 0.00 in0.0 mm
05:34 AM 36.3°F2.4°C 31.6°F-0.2°C 83% 3.6 mph SW5.8 kmh SW 7.6 mph12.2 kmh 30.01 in1016.3 mb 0.00 in0.0 mm 0.00 in0.0 mm 0.00 in0.0 mm
05:39 AM 36.1°F2.3°C 31.5°F-0.3°C 83% 4.0 mph SSW6.4 kmh SSW 7.2 mph11.6 kmh 30.01 in1016.3 mb 0.00 in0.0 mm 0.00 in0.0 mm 0.00 in0.0 mm
05:44 AM 36.0°F2.2°C 31.3°F-0.4°C 83% 3.1 mph SW5.0 kmh SW 9.4 mph15.1 kmh 30.02 in1016.6 mb 0.00 in0.0 mm 0.00 in0.0 mm 0.00 in0.0 mm
05:49 AM 36.0°F2.2°C 31.3°F-0.4°C 83% 2.0 mph SW3.2 kmh SW 7.6 mph12.2 kmh 30.03 in1016.9 mb 0.00 in0.0 mm 0.00 in0.0 mm 0.00 in0.0 mm
05:54 AM 35.8°F2.1°C 31.1°F-0.5°C 83% 2.2 mph SW3.5 kmh SW 4.0 mph6.4 kmh 30.03 in1016.9 mb 0.00 in0.0 mm 0.00 in0.0 mm 0.00 in0.0 mm
05:59 AM 35.8°F2.1°C 31.1°F-0.5°C 83% 2.2 mph WSW3.5 kmh WSW 3.6 mph5.8 kmh 30.04 in1017.3 mb 0.00 in0.0 mm 0.00 in0.0 mm 0.00 in0.0 mm
06:04 AM 35.8°F2.1°C 30.7°F-0.7°C 82% 3.6 mph SW5.8 kmh SW 6.7 mph10.8 kmh 30.04 in1017.3 mb 0.00 in0.0 mm 0.00 in0.0 mm 0.00 in0.0 mm
06:09 AM 35.6°F2.0°C 30.6°F-0.8°C 82% 7.6 mph NNW12.2 kmh NNW 15.0 mph24.1 kmh 30.04 in1017.3 mb 0.00 in0.0 mm 0.00 in0.0 mm 0.00 in0.0 mm
06:14 AM 35.6°F2.0°C 30.0°F-1.1°C 80% 2.2 mph NNW3.5 kmh NNW 4.9 mph7.9 kmh 30.04 in1017.3 mb 0.00 in0.0 mm 0.00 in0.0 mm 0.00 in0.0 mm
06:19 AM 35.4°F1.9°C 29.8°F-1.2°C 80% 2.2 mph NNW3.5 kmh NNW 5.6 mph9.0 kmh 30.05 in1017.6 mb 0.00 in0.0 mm 0.00 in0.0 mm 0.00 in0.0 mm
06:24 AM 35.4°F1.9°C 29.8°F-1.2°C 80% 1.6 mph N2.6 kmh N 3.6 mph5.8 kmh 30.05 in1017.6 mb 0.00 in0.0 mm 0.00 in0.0 mm 0.00 in0.0 mm
06:29 AM 35.4°F1.9°C 29.8°F-1.2°C 80% 2.7 mph NW4.3 kmh NW 6.5 mph10.5 kmh 30.05 in1017.6 mb 0.00 in0.0 mm 0.00 in0.0 mm 0.00 in0.0 mm
06:34 AM 35.4°F1.9°C 29.8°F-1.2°C 80% 2.7 mph WNW4.3 kmh WNW 5.6 mph9.0 kmh 30.05 in1017.6 mb 0.00 in0.0 mm 0.00 in0.0 mm 0.00 in0.0 mm
06:39 AM 35.4°F1.9°C 29.8°F-1.2°C 80% 3.1 mph SW5.0 kmh SW 6.7 mph10.8 kmh 30.05 in1017.6 mb 0.00 in0.0 mm 0.00 in0.0 mm 0.00 in0.0 mm
06:44 AM 35.4°F1.9°C 29.8°F-1.2°C 80% 2.9 mph NNW4.7 kmh NNW 3.6 mph5.8 kmh 30.06 in1017.9 mb 0.00 in0.0 mm 0.00 in0.0 mm 0.00 in0.0 mm
06:49 AM 35.2°F1.8°C 29.7°F-1.3°C 80% 3.1 mph E5.0 kmh E 7.4 mph11.9 kmh 30.06 in1017.9 mb 0.00 in0.0 mm 0.00 in0.0 mm 0.00 in0.0 mm
06:54 AM 35.2°F1.8°C 29.7°F-1.3°C 80% 3.4 mph WNW5.5 kmh WNW 7.6 mph12.2 kmh 30.06 in1017.9 mb 0.00 in0.0 mm 0.00 in0.0 mm 0.00 in0.0 mm
06:59 AM 35.2°F1.8°C 29.7°F-1.3°C 80% 6.0 mph SSW9.7 kmh SSW 9.8 mph15.8 kmh 30.06 in1017.9 mb 0.00 in0.0 mm 0.00 in0.0 mm 0.00 in0.0 mm
07:04 AM 35.2°F1.8°C 29.7°F-1.3°C 80% 4.3 mph WSW6.9 kmh WSW 6.5 mph10.5 kmh 30.06 in1017.9 mb 0.00 in0.0 mm 0.00 in0.0 mm 0.00 in0.0 mm
07:09 AM 35.2°F1.8°C 29.7°F-1.3°C 80% 3.8 mph SSW6.1 kmh SSW 16.1 mph25.9 kmh 30.06 in1017.9 mb 0.00 in0.0 mm 0.00 in0.0 mm 0.00 in0.0 mm
07:14 AM 35.2°F1.8°C 29.3°F-1.5°C 79% 2.0 mph SSW3.2 kmh SSW 4.3 mph6.9 kmh 30.07 in1018.3 mb 0.00 in0.0 mm 0.00 in0.0 mm 0.00 in0.0 mm
07:19 AM 35.1°F1.7°C 29.1°F-1.6°C 79% 5.6 mph S9.0 kmh S 11.9 mph19.2 kmh 30.07 in1018.3 mb 0.00 in0.0 mm 0.00 in0.0 mm 0.00 in0.0 mm
07:24 AM 35.1°F1.7°C 29.1°F-1.6°C 79% 2.7 mph WSW4.3 kmh WSW 4.3 mph6.9 kmh 30.07 in1018.3 mb 0.00 in0.0 mm 0.00 in0.0 mm 0.00 in0.0 mm
07:29 AM 35.1°F1.7°C 29.1°F-1.6°C 79% 2.7 mph SW4.3 kmh SW 6.0 mph9.7 kmh 30.07 in1018.3 mb 0.00 in0.0 mm 0.00 in0.0 mm 0.00 in0.0 mm
07:34 AM 35.1°F1.7°C 29.1°F-1.6°C 79% 2.0 mph NW3.2 kmh NW 4.9 mph7.9 kmh 30.07 in1018.3 mb 0.00 in0.0 mm 0.00 in0.0 mm 0.00 in0.0 mm
07:39 AM 35.1°F1.7°C 28.9°F-1.7°C 78% 2.9 mph SW4.7 kmh SW 5.1 mph8.2 kmh 30.07 in1018.3 mb 0.00 in0.0 mm 0.00 in0.0 mm 0.00 in0.0 mm
07:44 AM 35.1°F1.7°C 28.9°F-1.7°C 78% 2.9 mph SW4.7 kmh SW 4.9 mph7.9 kmh 30.07 in1018.3 mb 0.00 in0.0 mm 0.00 in0.0 mm 0.00 in0.0 mm
07:49 AM 34.9°F1.6°C 28.8°F-1.8°C 78% 5.1 mph W8.2 kmh W 11.6 mph18.7 kmh 30.06 in1017.9 mb 0.00 in0.0 mm 0.00 in0.0 mm 0.00 in0.0 mm
07:54 AM 34.9°F1.6°C 28.8°F-1.8°C 78% 2.2 mph NNW3.5 kmh NNW 5.8 mph9.3 kmh 30.07 in1018.3 mb 0.00 in0.0 mm 0.00 in0.0 mm 0.00 in0.0 mm
07:59 AM 34.9°F1.6°C 29.1°F-1.6°C 79% 2.2 mph SW3.5 kmh SW 4.5 mph7.2 kmh 30.07 in1018.3 mb 0.00 in0.0 mm 0.00 in0.0 mm 0.00 in0.0 mm
08:04 AM 35.1°F1.7°C 28.9°F-1.7°C 78% 3.1 mph SW5.0 kmh SW 9.2 mph14.8 kmh 30.07 in1018.3 mb 0.00 in0.0 mm 0.00 in0.0 mm 0.00 in0.0 mm
08:09 AM 34.9°F1.6°C 29.1°F-1.6°C 79% 2.9 mph SW4.7 kmh SW 6.5 mph10.5 kmh 30.07 in1018.3 mb 0.00 in0.0 mm 0.00 in0.0 mm 0.00 in0.0 mm
08:14 AM 34.9°F1.6°C 28.8°F-1.8°C 78% 4.0 mph SW6.4 kmh SW 8.3 mph13.4 kmh 30.07 in1018.3 mb 0.00 in0.0 mm 0.00 in0.0 mm 0.00 in0.0 mm
08:19 AM 34.9°F1.6°C 28.8°F-1.8°C 78% 2.9 mph W4.7 kmh W 6.0 mph9.7 kmh 30.08 in1018.6 mb 0.00 in0.0 mm 0.00 in0.0 mm 0.00 in0.0 mm
08:24 AM 34.7°F1.5°C 28.9°F-1.7°C 79% 2.0 mph W3.2 kmh W 4.3 mph6.9 kmh 30.08 in1018.6 mb 0.00 in0.0 mm 0.00 in0.0 mm 0.00 in0.0 mm
08:29 AM 34.7°F1.5°C 28.6°F-1.9°C 78% 4.7 mph W7.6 kmh W 8.3 mph13.4 kmh 30.08 in1018.6 mb 0.00 in0.0 mm 0.00 in0.0 mm 0.00 in0.0 mm
08:34 AM 34.7°F1.5°C 28.6°F-1.9°C 78% 2.2 mph SE3.5 kmh SE 4.0 mph6.4 kmh 30.08 in1018.6 mb 0.00 in0.0 mm 0.00 in0.0 mm 0.00 in0.0 mm
08:39 AM 34.7°F1.5°C 28.6°F-1.9°C 78% 2.5 mph SW4.0 kmh SW 4.7 mph7.6 kmh 30.08 in1018.6 mb 0.00 in0.0 mm 0.00 in0.0 mm 0.00 in0.0 mm
08:44 AM 34.9°F1.6°C 28.8°F-1.8°C 78% 4.7 mph SW7.6 kmh SW 8.1 mph13.0 kmh 30.09 in1019.0 mb 0.00 in0.0 mm 0.00 in0.0 mm 0.00 in0.0 mm
08:49 AM 34.7°F1.5°C 28.6°F-1.9°C 78% 2.7 mph W4.3 kmh W 6.7 mph10.8 kmh 30.09 in1019.0 mb 0.00 in0.0 mm 0.00 in0.0 mm 0.00 in0.0 mm
08:54 AM 34.9°F1.6°C 28.8°F-1.8°C 78% 3.8 mph SW6.1 kmh SW 6.7 mph10.8 kmh 30.09 in1019.0 mb 0.00 in0.0 mm 0.00 in0.0 mm 0.00 in0.0 mm
08:59 AM 34.7°F1.5°C 28.6°F-1.9°C 78% 3.1 mph S5.0 kmh S 5.6 mph9.0 kmh 30.09 in1019.0 mb 0.00 in0.0 mm 0.00 in0.0 mm 0.00 in0.0 mm
09:04 AM 34.7°F1.5°C 28.2°F-2.1°C 77% 2.7 mph WSW4.3 kmh WSW 5.6 mph9.0 kmh 30.09 in1019.0 mb 0.00 in0.0 mm 0.00 in0.0 mm 0.00 in0.0 mm
09:09 AM 34.7°F1.5°C 28.2°F-2.1°C 77% 2.2 mph W3.5 kmh W 4.7 mph7.6 kmh 30.10 in1019.3 mb 0.00 in0.0 mm 0.00 in0.0 mm 0.00 in0.0 mm
09:14 AM 34.7°F1.5°C 28.2°F-2.1°C 77% 3.6 mph SSW5.8 kmh SSW 9.2 mph14.8 kmh 30.10 in1019.3 mb 0.00 in0.0 mm 0.00 in0.0 mm 0.00 in0.0 mm
09:19 AM 34.7°F1.5°C 28.2°F-2.1°C 77% 3.4 mph W5.5 kmh W 6.7 mph10.8 kmh 30.11 in1019.6 mb 0.00 in0.0 mm 0.00 in0.0 mm 0.00 in0.0 mm
09:24 AM 34.9°F1.6°C 28.4°F-2.0°C 77% 1.6 mph SW2.6 kmh SW 2.0 mph3.2 kmh 30.11 in1019.6 mb 0.00 in0.0 mm 0.00 in0.0 mm 0.00 in0.0 mm
09:29 AM 35.1°F1.7°C 28.9°F-1.7°C 78% 2.2 mph SSW3.5 kmh SSW 3.6 mph5.8 kmh 30.12 in1020.0 mb 0.00 in0.0 mm 0.00 in0.0 mm 0.00 in0.0 mm
09:34 AM 35.2°F1.8°C 28.8°F-1.8°C 77% 5.1 mph SSW8.2 kmh SSW 8.1 mph13.0 kmh 30.12 in1020.0 mb 0.00 in0.0 mm 0.00 in0.0 mm 0.00 in0.0 mm
09:39 AM 35.2°F1.8°C 28.8°F-1.8°C 77% 3.1 mph NW5.0 kmh NW 9.4 mph15.1 kmh 30.12 in1020.0 mb 0.00 in0.0 mm 0.00 in0.0 mm 0.00 in0.0 mm
09:44 AM 35.1°F1.7°C 28.6°F-1.9°C 77% 2.2 mph NNW3.5 kmh NNW 6.5 mph10.5 kmh 30.13 in1020.3 mb 0.00 in0.0 mm 0.00 in0.0 mm 0.00 in0.0 mm
09:49 AM 35.1°F1.7°C 28.6°F-1.9°C 77% 4.5 mph N7.2 kmh N 6.7 mph10.8 kmh 30.13 in1020.3 mb 0.00 in0.0 mm 0.00 in0.0 mm 0.00 in0.0 mm
09:54 AM 34.9°F1.6°C 28.4°F-2.0°C 77% 3.4 mph W5.5 kmh W 6.7 mph10.8 kmh 30.13 in1020.3 mb 0.00 in0.0 mm 0.00 in0.0 mm 0.00 in0.0 mm
09:59 AM 35.1°F1.7°C 28.6°F-1.9°C 77% 3.4 mph WSW5.5 kmh WSW 7.2 mph11.6 kmh 30.13 in1020.3 mb 0.00 in0.0 mm 0.00 in0.0 mm 0.00 in0.0 mm
10:04 AM 35.2°F1.8°C 28.8°F-1.8°C 77% 1.6 mph SE2.6 kmh SE 3.4 mph5.5 kmh 30.13 in1020.3 mb 0.00 in0.0 mm 0.00 in0.0 mm 0.00 in0.0 mm
10:09 AM 35.2°F1.8°C 28.8°F-1.8°C 77% 3.6 mph SW5.8 kmh SW 7.6 mph12.2 kmh 30.13 in1020.3 mb 0.00 in0.0 mm 0.00 in0.0 mm 0.00 in0.0 mm
10:14 AM 35.2°F1.8°C 28.8°F-1.8°C 77% 4.9 mph SW7.9 kmh SW 9.2 mph14.8 kmh 30.13 in1020.3 mb 0.00 in0.0 mm 0.00 in0.0 mm 0.00 in0.0 mm
10:19 AM 35.4°F1.9°C 28.9°F-1.7°C 77% 2.7 mph SSW4.3 kmh SSW 6.3 mph10.1 kmh 30.14 in1020.7 mb 0.00 in0.0 mm 0.00 in0.0 mm 0.00 in0.0 mm
10:24 AM 35.8°F2.1°C 29.7°F-1.3°C 78% 5.6 mph S9.0 kmh S 10.3 mph16.6 kmh 30.14 in1020.7 mb 0.00 in0.0 mm 0.00 in0.0 mm 0.00 in0.0 mm
10:29 AM 35.8°F2.1°C 28.6°F-1.9°C 75% 6.7 mph SW10.8 kmh SW 11.4 mph18.3 kmh 30.14 in1020.7 mb 0.00 in0.0 mm 0.00 in0.0 mm 0.00 in0.0 mm
10:34 AM 35.8°F2.1°C 28.6°F-1.9°C 75% 2.5 mph S4.0 kmh S 4.0 mph6.4 kmh 30.14 in1020.7 mb 0.00 in0.0 mm 0.00 in0.0 mm 0.00 in0.0 mm
10:39 AM 36.0°F2.2°C 28.8°F-1.8°C 75% 5.8 mph S9.3 kmh S 12.3 mph19.8 kmh 30.15 in1021.0 mb 0.00 in0.0 mm 0.00 in0.0 mm 0.00 in0.0 mm
10:44 AM 36.1°F2.3°C 28.9°F-1.7°C 75% 4.7 mph SSW7.6 kmh SSW 7.4 mph11.9 kmh 30.15 in1021.0 mb 0.00 in0.0 mm 0.00 in0.0 mm 0.00 in0.0 mm
10:49 AM 36.1°F2.3°C 28.6°F-1.9°C 74% 2.9 mph SW4.7 kmh SW 7.2 mph11.6 kmh 30.15 in1021.0 mb 0.00 in0.0 mm 0.00 in0.0 mm 0.00 in0.0 mm
10:54 AM 36.3°F2.4°C 28.8°F-1.8°C 74% 4.3 mph S6.9 kmh S 8.9 mph14.3 kmh 30.16 in1021.3 mb 0.00 in0.0 mm 0.00 in0.0 mm 0.00 in0.0 mm
10:59 AM 36.3°F2.4°C 28.8°F-1.8°C 74% 2.5 mph W4.0 kmh W 6.7 mph10.8 kmh 30.15 in1021.0 mb 0.00 in0.0 mm 0.00 in0.0 mm 0.00 in0.0 mm
11:04 AM 36.3°F2.4°C 28.8°F-1.8°C 74% 3.6 mph S5.8 kmh S 6.0 mph9.7 kmh 30.16 in1021.3 mb 0.00 in0.0 mm 0.00 in0.0 mm 0.00 in0.0 mm
11:09 AM 36.7°F2.6°C 29.1°F-1.6°C 74% 5.6 mph SSW9.0 kmh SSW 8.9 mph14.3 kmh 30.16 in1021.3 mb 0.00 in0.0 mm 0.00 in0.0 mm 0.00 in0.0 mm
11:14 AM 36.9°F2.7°C 29.3°F-1.5°C 74% 4.9 mph SSW7.9 kmh SSW 8.7 mph14.0 kmh 30.16 in1021.3 mb 0.00 in0.0 mm 0.00 in0.0 mm 0.00 in0.0 mm
11:19 AM 37.0°F2.8°C 29.5°F-1.4°C 74% 4.9 mph NW7.9 kmh NW 10.1 mph16.3 kmh 30.16 in1021.3 mb 0.00 in0.0 mm 0.00 in0.0 mm 0.00 in0.0 mm
11:24 AM 37.4°F3.0°C 29.8°F-1.2°C 74% 5.8 mph SSW9.3 kmh SSW 10.5 mph16.9 kmh 30.16 in1021.3 mb 0.00 in0.0 mm 0.00 in0.0 mm 0.00 in0.0 mm
11:29 AM 37.2°F2.9°C 29.7°F-1.3°C 74% 4.3 mph SW6.9 kmh SW 6.9 mph11.1 kmh 30.16 in1021.3 mb 0.00 in0.0 mm 0.00 in0.0 mm 0.00 in0.0 mm
11:34 AM 37.8°F3.2°C 30.2°F-1.0°C 74% 8.7 mph SSW14.0 kmh SSW 11.2 mph18.0 kmh 30.16 in1021.3 mb 0.00 in0.0 mm 0.00 in0.0 mm 0.00 in0.0 mm
11:39 AM 37.8°F3.2°C 30.2°F-1.0°C 74% 6.5 mph SW10.5 kmh SW 15.2 mph24.5 kmh 30.16 in1021.3 mb 0.00 in0.0 mm 0.00 in0.0 mm 0.00 in0.0 mm
11:44 AM 37.6°F3.1°C 29.7°F-1.3°C 73% 2.5 mph SW4.0 kmh SW 6.7 mph10.8 kmh 30.16 in1021.3 mb 0.00 in0.0 mm 0.00 in0.0 mm 0.00 in0.0 mm
11:49 AM 37.8°F3.2°C 30.2°F-1.0°C 74% 4.3 mph WSW6.9 kmh WSW 10.7 mph17.2 kmh 30.16 in1021.3 mb 0.00 in0.0 mm 0.00 in0.0 mm 0.00 in0.0 mm
11:54 AM 38.1°F3.4°C 30.6°F-0.8°C 74% 4.5 mph W7.2 kmh W 10.1 mph16.3 kmh 30.16 in1021.3 mb 0.00 in0.0 mm 0.00 in0.0 mm 0.00 in0.0 mm
11:59 AM 38.3°F3.5°C 30.7°F-0.7°C 74% 2.9 mph SSE4.7 kmh SSE 6.0 mph9.7 kmh 30.16 in1021.3 mb 0.00 in0.0 mm 0.00 in0.0 mm 0.00 in0.0 mm
12:04 PM 38.3°F3.5°C 30.4°F-0.9°C 73% 5.6 mph SSW9.0 kmh SSW 8.7 mph14.0 kmh 30.16 in1021.3 mb 0.00 in0.0 mm 0.00 in0.0 mm 0.00 in0.0 mm
12:09 PM 38.1°F3.4°C 30.2°F-1.0°C 73% 4.7 mph S7.6 kmh S 9.2 mph14.8 kmh 30.16 in1021.3 mb 0.00 in0.0 mm 0.00 in0.0 mm 0.00 in0.0 mm
12:14 PM 37.9°F3.3°C 30.0°F-1.1°C 73% 7.8 mph SSW12.6 kmh SSW 14.3 mph23.0 kmh 30.16 in1021.3 mb 0.00 in0.0 mm 0.00 in0.0 mm 0.00 in0.0 mm
12:19 PM 38.1°F3.4°C 30.2°F-1.0°C 73% 4.9 mph SSW7.9 kmh SSW 10.3 mph16.6 kmh 30.17 in1021.7 mb 0.00 in0.0 mm 0.00 in0.0 mm 0.00 in0.0 mm
12:24 PM 38.7°F3.7°C 31.1°F-0.5°C 74% 5.6 mph S9.0 kmh S 8.5 mph13.7 kmh 30.17 in1021.7 mb 0.00 in0.0 mm 0.00 in0.0 mm 0.00 in0.0 mm
12:29 PM 39.0°F3.9°C 31.1°F-0.5°C 73% 8.3 mph SSW13.4 kmh SSW 13.4 mph21.6 kmh 30.17 in1021.7 mb 0.00 in0.0 mm 0.00 in0.0 mm 0.00 in0.0 mm
12:34 PM 38.8°F3.8°C 29.8°F-1.2°C 70% 3.4 mph SSW5.5 kmh SSW 6.3 mph10.1 kmh 30.17 in1021.7 mb 0.00 in0.0 mm 0.00 in0.0 mm 0.00 in0.0 mm
12:39 PM 38.8°F3.8°C 29.8°F-1.2°C 70% 6.5 mph NW10.5 kmh NW 20.1 mph32.3 kmh 30.17 in1021.7 mb 0.00 in0.0 mm 0.00 in0.0 mm 0.00 in0.0 mm
12:44 PM 39.2°F4.0°C 30.2°F-1.0°C 70% 10.1 mph SSW16.3 kmh SSW 13.2 mph21.2 kmh 30.17 in1021.7 mb 0.00 in0.0 mm 0.00 in0.0 mm 0.00 in0.0 mm
12:49 PM 39.6°F4.2°C 30.6°F-0.8°C 70% 5.1 mph SSW8.2 kmh SSW 10.3 mph16.6 kmh 30.17 in1021.7 mb 0.00 in0.0 mm 0.00 in0.0 mm 0.00 in0.0 mm
12:54 PM 39.6°F4.2°C 30.2°F-1.0°C 69% 6.0 mph SW9.7 kmh SW 9.8 mph15.8 kmh 30.17 in1021.7 mb 0.00 in0.0 mm 0.00 in0.0 mm 0.00 in0.0 mm
12:59 PM 39.6°F4.2°C 30.2°F-1.0°C 69% 4.7 mph W7.6 kmh W 16.8 mph27.0 kmh 30.18 in1022.0 mb 0.00 in0.0 mm 0.00 in0.0 mm 0.00 in0.0 mm
01:04 PM 39.4°F4.1°C 29.7°F-1.3°C 68% 3.4 mph SSW5.5 kmh SSW 8.7 mph14.0 kmh 30.17 in1021.7 mb 0.00 in0.0 mm 0.00 in0.0 mm 0.00 in0.0 mm
01:09 PM 39.6°F4.2°C 30.6°F-0.8°C 70% 8.7 mph SSW14.0 kmh SSW 14.3 mph23.0 kmh 30.17 in1021.7 mb 0.00 in0.0 mm 0.00 in0.0 mm 0.00 in0.0 mm
01:14 PM 39.7°F4.3°C 30.0°F-1.1°C 68% 4.7 mph SSW7.6 kmh SSW 8.5 mph13.7 kmh 30.17 in1021.7 mb 0.00 in0.0 mm 0.00 in0.0 mm 0.00 in0.0 mm
01:19 PM 39.7°F4.3°C 29.7°F-1.3°C 67% 3.8 mph WSW6.1 kmh WSW 10.7 mph17.2 kmh 30.17 in1021.7 mb 0.00 in0.0 mm 0.00 in0.0 mm 0.00 in0.0 mm
01:24 PM 39.7°F4.3°C 29.3°F-1.5°C 66% 3.6 mph 5.8 kmh 6.5 mph10.5 kmh 30.16 in1021.3 mb 0.00 in0.0 mm 0.00 in0.0 mm 0.00 in0.0 mm
01:29 PM 39.9°F4.4°C 29.8°F-1.2°C 67% 3.8 mph SW6.1 kmh SW 8.3 mph13.4 kmh 30.17 in1021.7 mb 0.00 in0.0 mm 0.00 in0.0 mm 0.00 in0.0 mm
01:34 PM 40.1°F4.5°C 30.0°F-1.1°C 67% 5.8 mph S9.3 kmh S 8.5 mph13.7 kmh 30.16 in1021.3 mb 0.00 in0.0 mm 0.00 in0.0 mm 0.00 in0.0 mm
01:39 PM 40.3°F4.6°C 29.8°F-1.2°C 66% 4.3 mph S6.9 kmh S 8.7 mph14.0 kmh 30.16 in1021.3 mb 0.00 in0.0 mm 0.00 in0.0 mm 0.00 in0.0 mm
01:44 PM 40.3°F4.6°C 29.5°F-1.4°C 65% 3.8 mph SSW6.1 kmh SSW 8.3 mph13.4 kmh 30.16 in1021.3 mb 0.00 in0.0 mm 0.00 in0.0 mm 0.00 in0.0 mm
01:49 PM 40.5°F4.7°C 30.0°F-1.1°C 66% 4.7 mph SSW7.6 kmh SSW 7.6 mph12.2 kmh 30.16 in1021.3 mb 0.00 in0.0 mm 0.00 in0.0 mm 0.00 in0.0 mm
01:54 PM 40.6°F4.8°C 29.8°F-1.2°C 65% 3.1 mph SW5.0 kmh SW 8.5 mph13.7 kmh 30.16 in1021.3 mb 0.00 in0.0 mm 0.00 in0.0 mm 0.00 in0.0 mm
01:59 PM 40.6°F4.8°C 29.8°F-1.2°C 65% 5.1 mph NW8.2 kmh NW 17.4 mph28.0 kmh 30.16 in1021.3 mb 0.00 in0.0 mm 0.00 in0.0 mm 0.00 in0.0 mm
02:04 PM 40.8°F4.9°C 29.7°F-1.3°C 64% 2.2 mph WNW3.5 kmh WNW 7.6 mph12.2 kmh 30.17 in1021.7 mb 0.00 in0.0 mm 0.00 in0.0 mm 0.00 in0.0 mm
02:09 PM 40.6°F4.8°C 29.5°F-1.4°C 64% 4.3 mph WNW6.9 kmh WNW 11.9 mph19.2 kmh 30.16 in1021.3 mb 0.00 in0.0 mm 0.00 in0.0 mm 0.00 in0.0 mm
02:14 PM 40.6°F4.8°C 29.5°F-1.4°C 64% 2.7 mph WSW4.3 kmh WSW 5.8 mph9.3 kmh 30.17 in1021.7 mb 0.00 in0.0 mm 0.00 in0.0 mm 0.00 in0.0 mm
02:19 PM 40.6°F4.8°C 29.5°F-1.4°C 64% 4.3 mph NNW6.9 kmh NNW 8.9 mph14.3 kmh 30.17 in1021.7 mb 0.00 in0.0 mm 0.00 in0.0 mm 0.00 in0.0 mm
02:24 PM 40.6°F4.8°C 28.9°F-1.7°C 63% 5.1 mph NNW8.2 kmh NNW 10.5 mph16.9 kmh 30.17 in1021.7 mb 0.00 in0.0 mm 0.00 in0.0 mm 0.00 in0.0 mm
02:29 PM 40.6°F4.8°C 29.5°F-1.4°C 64% 6.5 mph SSW10.5 kmh SSW 12.8 mph20.6 kmh 30.16 in1021.3 mb 0.00 in0.0 mm 0.00 in0.0 mm 0.00 in0.0 mm
02:34 PM 40.8°F4.9°C 29.7°F-1.3°C 64% 2.9 mph WSW4.7 kmh WSW 7.4 mph11.9 kmh 30.17 in1021.7 mb 0.00 in0.0 mm 0.00 in0.0 mm 0.00 in0.0 mm
02:39 PM 41.0°F5.0°C 29.3°F-1.5°C 63% 5.8 mph S9.3 kmh S 11.9 mph19.2 kmh 30.16 in1021.3 mb 0.00 in0.0 mm 0.00 in0.0 mm 0.00 in0.0 mm
02:44 PM 41.0°F5.0°C 29.3°F-1.5°C 63% 3.8 mph NNW6.1 kmh NNW 6.5 mph10.5 kmh 30.16 in1021.3 mb 0.00 in0.0 mm 0.00 in0.0 mm 0.00 in0.0 mm
02:49 PM 41.2°F5.1°C 29.8°F-1.2°C 64% 2.9 mph NNW4.7 kmh NNW 8.5 mph13.7 kmh 30.16 in1021.3 mb 0.00 in0.0 mm 0.00 in0.0 mm 0.00 in0.0 mm
02:54 PM 41.4°F5.2°C 29.7°F-1.3°C 63% 1.3 mph S2.1 kmh S 3.1 mph5.0 kmh 30.16 in1021.3 mb 0.00 in0.0 mm 0.00 in0.0 mm 0.00 in0.0 mm
02:59 PM 41.4°F5.2°C 28.9°F-1.7°C 61% 2.7 mph SSW4.3 kmh SSW 5.6 mph9.0 kmh 30.16 in1021.3 mb 0.00 in0.0 mm 0.00 in0.0 mm 0.00 in0.0 mm
03:04 PM 41.4°F5.2°C 28.6°F-1.9°C 60% 5.1 mph SW8.2 kmh SW 12.1 mph19.5 kmh 30.16 in1021.3 mb 0.00 in0.0 mm 0.00 in0.0 mm 0.00 in0.0 mm
03:09 PM 41.4°F5.2°C 28.9°F-1.7°C 61% 6.7 mph SSW10.8 kmh SSW 13.4 mph21.6 kmh 30.16 in1021.3 mb 0.00 in0.0 mm 0.00 in0.0 mm 0.00 in0.0 mm
03:14 PM 41.5°F5.3°C 29.1°F-1.6°C 61% 3.6 mph NW5.8 kmh NW 6.5 mph10.5 kmh 30.16 in1021.3 mb 0.00 in0.0 mm 0.00 in0.0 mm 0.00 in0.0 mm
03:19 PM 41.5°F5.3°C 28.8°F-1.8°C 60% 4.3 mph WSW6.9 kmh WSW 10.5 mph16.9 kmh 30.16 in1021.3 mb 0.00 in0.0 mm 0.00 in0.0 mm 0.00 in0.0 mm
03:24 PM 41.5°F5.3°C 28.8°F-1.8°C 60% 7.2 mph SW11.6 kmh SW 12.1 mph19.5 kmh 30.16 in1021.3 mb 0.00 in0.0 mm 0.00 in0.0 mm 0.00 in0.0 mm
03:29 PM 41.7°F5.4°C 29.3°F-1.5°C 61% 3.1 mph N5.0 kmh N 5.4 mph8.7 kmh 30.16 in1021.3 mb 0.00 in0.0 mm 0.00 in0.0 mm 0.00 in0.0 mm
03:34 PM 41.7°F5.4°C 28.4°F-2.0°C 59% 2.7 mph SW4.3 kmh SW 5.6 mph9.0 kmh 30.16 in1021.3 mb 0.00 in0.0 mm 0.00 in0.0 mm 0.00 in0.0 mm
03:39 PM 41.5°F5.3°C 28.8°F-1.8°C 60% 3.6 mph SSW5.8 kmh SSW 6.7 mph10.8 kmh 30.16 in1021.3 mb 0.00 in0.0 mm 0.00 in0.0 mm 0.00 in0.0 mm
03:44 PM 41.7°F5.4°C 28.9°F-1.7°C 60% 2.2 mph SW3.5 kmh SW 5.1 mph8.2 kmh 30.16 in1021.3 mb 0.00 in0.0 mm 0.00 in0.0 mm 0.00 in0.0 mm
03:49 PM 41.9°F5.5°C 28.9°F-1.7°C 60% 6.3 mph N10.1 kmh N 8.5 mph13.7 kmh 30.16 in1021.3 mb 0.00 in0.0 mm 0.00 in0.0 mm 0.00 in0.0 mm
03:54 PM 41.5°F5.3°C 28.8°F-1.8°C 60% 2.5 mph SSW4.0 kmh SSW 4.7 mph7.6 kmh 30.16 in1021.3 mb 0.00 in0.0 mm 0.00 in0.0 mm 0.00 in0.0 mm
03:59 PM 41.7°F5.4°C 28.9°F-1.7°C 60% 4.0 mph S6.4 kmh S 6.7 mph10.8 kmh 30.16 in1021.3 mb 0.00 in0.0 mm 0.00 in0.0 mm 0.00 in0.0 mm
04:04 PM 41.9°F5.5°C 28.9°F-1.7°C 60% 3.8 mph NW6.1 kmh NW 6.7 mph10.8 kmh 30.16 in1021.3 mb 0.00 in0.0 mm 0.00 in0.0 mm 0.00 in0.0 mm
04:09 PM 41.9°F5.5°C 28.6°F-1.9°C 59% 4.0 mph W6.4 kmh W 15.7 mph25.3 kmh 30.16 in1021.3 mb 0.00 in0.0 mm 0.00 in0.0 mm 0.00 in0.0 mm
04:14 PM 41.7°F5.4°C 28.0°F-2.2°C 58% 4.5 mph NW7.2 kmh NW 13.2 mph21.2 kmh 30.16 in1021.3 mb 0.00 in0.0 mm 0.00 in0.0 mm 0.00 in0.0 mm
04:19 PM 41.7°F5.4°C 28.0°F-2.2°C 58% 3.4 mph WNW5.5 kmh WNW 6.7 mph10.8 kmh 30.16 in1021.3 mb 0.00 in0.0 mm 0.00 in0.0 mm 0.00 in0.0 mm
04:24 PM 41.9°F5.5°C 28.6°F-1.9°C 59% 2.7 mph W4.3 kmh W 6.5 mph10.5 kmh 30.16 in1021.3 mb 0.00 in0.0 mm 0.00 in0.0 mm 0.00 in0.0 mm
04:29 PM 41.9°F5.5°C 28.6°F-1.9°C 59% 4.0 mph SW6.4 kmh SW 7.6 mph12.2 kmh 30.17 in1021.7 mb 0.00 in0.0 mm 0.00 in0.0 mm 0.00 in0.0 mm
04:34 PM 42.1°F5.6°C 29.1°F-1.6°C 60% 5.6 mph WNW9.0 kmh WNW 13.0 mph20.9 kmh 30.17 in1021.7 mb 0.00 in0.0 mm 0.00 in0.0 mm 0.00 in0.0 mm
04:39 PM 41.9°F5.5°C 28.6°F-1.9°C 59% 3.8 mph W6.1 kmh W 6.9 mph11.1 kmh 30.17 in1021.7 mb 0.00 in0.0 mm 0.00 in0.0 mm 0.00 in0.0 mm
04:44 PM 41.9°F5.5°C 28.6°F-1.9°C 59% 3.8 mph SW6.1 kmh SW 7.6 mph12.2 kmh 30.18 in1022.0 mb 0.00 in0.0 mm 0.00 in0.0 mm 0.00 in0.0 mm
04:49 PM 41.7°F5.4°C 28.0°F-2.2°C 58% 3.4 mph N5.5 kmh N 7.6 mph12.2 kmh 30.18 in1022.0 mb 0.00 in0.0 mm 0.00 in0.0 mm 0.00 in0.0 mm
04:54 PM 41.7°F5.4°C 28.4°F-2.0°C 59% 3.4 mph NW5.5 kmh NW 7.6 mph12.2 kmh 30.18 in1022.0 mb 0.00 in0.0 mm 0.00 in0.0 mm 0.00 in0.0 mm
04:59 PM 41.5°F5.3°C 27.9°F-2.3°C 58% 4.5 mph W7.2 kmh W 8.5 mph13.7 kmh 30.19 in1022.4 mb 0.00 in0.0 mm 0.00 in0.0 mm 0.00 in0.0 mm
05:04 PM 41.2°F5.1°C 27.5°F-2.5°C 58% 2.9 mph NNW4.7 kmh NNW 5.4 mph8.7 kmh 30.18 in1022.0 mb 0.00 in0.0 mm 0.00 in0.0 mm 0.00 in0.0 mm
05:09 PM 41.4°F5.2°C 28.0°F-2.2°C 59% 1.8 mph NW2.9 kmh NW 2.7 mph4.3 kmh 30.19 in1022.4 mb 0.00 in0.0 mm 0.00 in0.0 mm 0.00 in0.0 mm
05:14 PM 41.5°F5.3°C 28.8°F-1.8°C 60% 2.9 mph N4.7 kmh N 4.7 mph7.6 kmh 30.19 in1022.4 mb 0.00 in0.0 mm 0.00 in0.0 mm 0.00 in0.0 mm
05:19 PM 41.5°F5.3°C 28.8°F-1.8°C 60% 1.1 mph S1.8 kmh S 2.7 mph4.3 kmh 30.19 in1022.4 mb 0.00 in0.0 mm 0.00 in0.0 mm 0.00 in0.0 mm
05:24 PM 41.4°F5.2°C 28.6°F-1.9°C 60% 2.5 mph N4.0 kmh N 4.9 mph7.9 kmh 30.20 in1022.7 mb 0.00 in0.0 mm 0.00 in0.0 mm 0.00 in0.0 mm
05:29 PM 41.0°F5.0°C 29.3°F-1.5°C 63% 1.6 mph N2.6 kmh N 2.9 mph4.7 kmh 30.20 in1022.7 mb 0.00 in0.0 mm 0.00 in0.0 mm 0.00 in0.0 mm
05:34 PM 40.5°F4.7°C 29.3°F-1.5°C 64% 4.0 mph NNW6.4 kmh NNW 6.0 mph9.7 kmh 30.21 in1023.0 mb 0.00 in0.0 mm 0.00 in0.0 mm 0.00 in0.0 mm
05:39 PM 40.1°F4.5°C 29.3°F-1.5°C 65% 2.2 mph N3.5 kmh N 2.7 mph4.3 kmh 30.21 in1023.0 mb 0.00 in0.0 mm 0.00 in0.0 mm 0.00 in0.0 mm
05:44 PM 39.7°F4.3°C 29.3°F-1.5°C 66% 4.0 mph N6.4 kmh N 5.8 mph9.3 kmh 30.21 in1023.0 mb 0.00 in0.0 mm 0.00 in0.0 mm 0.00 in0.0 mm
05:49 PM 39.6°F4.2°C 28.8°F-1.8°C 65% 3.6 mph N5.8 kmh N 6.0 mph9.7 kmh 30.22 in1023.4 mb 0.00 in0.0 mm 0.00 in0.0 mm 0.00 in0.0 mm
05:54 PM 39.4°F4.1°C 28.9°F-1.7°C 66% 3.8 mph N6.1 kmh N 6.9 mph11.1 kmh 30.22 in1023.4 mb 0.00 in0.0 mm 0.00 in0.0 mm 0.00 in0.0 mm
05:59 PM 39.2°F4.0°C 28.8°F-1.8°C 66% 1.6 mph NNW2.6 kmh NNW 3.4 mph5.5 kmh 30.23 in1023.7 mb 0.00 in0.0 mm 0.00 in0.0 mm 0.00 in0.0 mm
06:04 PM 39.2°F4.0°C 29.1°F-1.6°C 67% 4.0 mph N6.4 kmh N 5.6 mph9.0 kmh 30.23 in1023.7 mb 0.00 in0.0 mm 0.00 in0.0 mm 0.00 in0.0 mm
06:09 PM 39.0°F3.9°C 28.9°F-1.7°C 67% 2.7 mph NNW4.3 kmh NNW 4.7 mph7.6 kmh 30.23 in1023.7 mb 0.00 in0.0 mm 0.00 in0.0 mm 0.00 in0.0 mm
06:14 PM 38.7°F3.7°C 28.6°F-1.9°C 67% 2.5 mph N4.0 kmh N 4.0 mph6.4 kmh 30.23 in1023.7 mb 0.00 in0.0 mm 0.00 in0.0 mm 0.00 in0.0 mm
06:19 PM 38.3°F3.5°C 28.2°F-2.1°C 67% 3.1 mph N5.0 kmh N 4.7 mph7.6 kmh 30.23 in1023.7 mb 0.00 in0.0 mm 0.00 in0.0 mm 0.00 in0.0 mm
06:24 PM 38.1°F3.4°C 28.0°F-2.2°C 67% 2.0 mph NNW3.2 kmh NNW 3.4 mph5.5 kmh 30.23 in1023.7 mb 0.00 in0.0 mm 0.00 in0.0 mm 0.00 in0.0 mm
06:29 PM 38.1°F3.4°C 28.6°F-1.9°C 68% 2.5 mph N4.0 kmh N 4.5 mph7.2 kmh 30.23 in1023.7 mb 0.00 in0.0 mm 0.00 in0.0 mm 0.00 in0.0 mm
06:34 PM 37.8°F3.2°C 28.2°F-2.1°C 68% 4.3 mph N6.9 kmh N 6.7 mph10.8 kmh 30.24 in1024.0 mb 0.00 in0.0 mm 0.00 in0.0 mm 0.00 in0.0 mm
06:39 PM 37.4°F3.0°C 28.2°F-2.1°C 69% 2.2 mph N3.5 kmh N 3.6 mph5.8 kmh 30.24 in1024.0 mb 0.00 in0.0 mm 0.00 in0.0 mm 0.00 in0.0 mm
06:44 PM 37.4°F3.0°C 28.2°F-2.1°C 69% 2.0 mph N3.2 kmh N 3.4 mph5.5 kmh 30.24 in1024.0 mb 0.00 in0.0 mm 0.00 in0.0 mm 0.00 in0.0 mm
06:49 PM 37.4°F3.0°C 28.2°F-2.1°C 69% 2.2 mph N3.5 kmh N 4.0 mph6.4 kmh 30.24 in1024.0 mb 0.00 in0.0 mm 0.00 in0.0 mm 0.00 in0.0 mm
06:54 PM 37.2°F2.9°C 28.0°F-2.2°C 69% 2.0 mph N3.2 kmh N 4.0 mph6.4 kmh 30.24 in1024.0 mb 0.00 in0.0 mm 0.00 in0.0 mm 0.00 in0.0 mm
06:59 PM 37.0°F2.8°C 27.9°F-2.3°C 69% 2.2 mph NNW3.5 kmh NNW 3.1 mph5.0 kmh 30.24 in1024.0 mb 0.00 in0.0 mm 0.00 in0.0 mm 0.00 in0.0 mm
07:04 PM 36.9°F2.7°C 28.0°F-2.2°C 70% 0.9 mph NW1.4 kmh NW 3.8 mph6.1 kmh 30.24 in1024.0 mb 0.00 in0.0 mm 0.00 in0.0 mm 0.00 in0.0 mm
07:09 PM 36.9°F2.7°C 28.0°F-2.2°C 70% 1.3 mph N2.1 kmh N 2.7 mph4.3 kmh 30.25 in1024.4 mb 0.00 in0.0 mm 0.00 in0.0 mm 0.00 in0.0 mm
07:14 PM 36.7°F2.6°C 27.9°F-2.3°C 70% 1.8 mph N2.9 kmh N 4.3 mph6.9 kmh 30.26 in1024.7 mb 0.00 in0.0 mm 0.00 in0.0 mm 0.00 in0.0 mm
07:19 PM 36.7°F2.6°C 27.9°F-2.3°C 70% 1.1 mph NNW1.8 kmh NNW 3.1 mph5.0 kmh 30.25 in1024.4 mb 0.00 in0.0 mm 0.00 in0.0 mm 0.00 in0.0 mm
07:24 PM 36.5°F2.5°C 27.7°F-2.4°C 70% 1.6 mph N2.6 kmh N 3.6 mph5.8 kmh 30.26 in1024.7 mb 0.00 in0.0 mm 0.00 in0.0 mm 0.00 in0.0 mm
07:29 PM 36.5°F2.5°C 27.7°F-2.4°C 70% 1.8 mph N2.9 kmh N 2.5 mph4.0 kmh 30.26 in1024.7 mb 0.00 in0.0 mm 0.00 in0.0 mm 0.00 in0.0 mm
07:34 PM 36.3°F2.4°C 27.9°F-2.3°C 71% 1.6 mph N2.6 kmh N 2.0 mph3.2 kmh 30.26 in1024.7 mb 0.00 in0.0 mm 0.00 in0.0 mm 0.00 in0.0 mm
07:39 PM 36.5°F2.5°C 28.0°F-2.2°C 71% 1.3 mph N2.1 kmh N 2.2 mph3.5 kmh 30.26 in1024.7 mb 0.00 in0.0 mm 0.00 in0.0 mm 0.00 in0.0 mm
07:44 PM 36.3°F2.4°C 27.9°F-2.3°C 71% 0.2 mph SW0.3 kmh SW 0.9 mph1.4 kmh 30.26 in1024.7 mb 0.00 in0.0 mm 0.00 in0.0 mm 0.00 in0.0 mm
07:49 PM 36.3°F2.4°C 27.9°F-2.3°C 71% 1.6 mph NNE2.6 kmh NNE 3.6 mph5.8 kmh 30.26 in1024.7 mb 0.00 in0.0 mm 0.00 in0.0 mm 0.00 in0.0 mm
07:54 PM 36.1°F2.3°C 27.7°F-2.4°C 71% 1.1 mph N1.8 kmh N 2.0 mph3.2 kmh 30.26 in1024.7 mb 0.00 in0.0 mm 0.00 in0.0 mm 0.00 in0.0 mm
07:59 PM 36.1°F2.3°C 27.7°F-2.4°C 71% 2.7 mph N4.3 kmh N 4.5 mph7.2 kmh 30.26 in1024.7 mb 0.00 in0.0 mm 0.00 in0.0 mm 0.00 in0.0 mm
08:04 PM 36.1°F2.3°C 28.4°F-2.0°C 73% 1.3 mph N2.1 kmh N 3.4 mph5.5 kmh 30.26 in1024.7 mb 0.00 in0.0 mm 0.00 in0.0 mm 0.00 in0.0 mm
08:09 PM 36.0°F2.2°C 28.2°F-2.1°C 73% 1.3 mph N2.1 kmh N 2.0 mph3.2 kmh 30.27 in1025.1 mb 0.00 in0.0 mm 0.00 in0.0 mm 0.00 in0.0 mm
08:14 PM 35.8°F2.1°C 28.2°F-2.1°C 74% 0.2 mph SSE0.3 kmh SSE 1.1 mph1.8 kmh 30.27 in1025.1 mb 0.00 in0.0 mm 0.00 in0.0 mm 0.00 in0.0 mm
08:19 PM 36.0°F2.2°C 28.4°F-2.0°C 74% Calm Calm 1.3 mph2.1 kmh 30.27 in1025.1 mb 0.00 in0.0 mm 0.00 in0.0 mm 0.00 in0.0 mm
08:24 PM 36.0°F2.2°C 28.4°F-2.0°C 74% 0.2 mph SW0.3 kmh SW 0.9 mph1.4 kmh 30.27 in1025.1 mb 0.00 in0.0 mm 0.00 in0.0 mm 0.00 in0.0 mm
08:29 PM 35.8°F2.1°C 28.2°F-2.1°C 74% 1.1 mph N1.8 kmh N 1.6 mph2.6 kmh 30.27 in1025.1 mb 0.00 in0.0 mm 0.00 in0.0 mm 0.00 in0.0 mm
08:34 PM 35.6°F2.0°C 28.2°F-2.1°C 74% 0.9 mph WNW1.4 kmh WNW 2.5 mph4.0 kmh 30.27 in1025.1 mb 0.00 in0.0 mm 0.00 in0.0 mm 0.00 in0.0 mm
08:39 PM 35.8°F2.1°C 28.6°F-1.9°C 75% Calm Calm -- 30.27 in1025.1 mb 0.00 in0.0 mm 0.00 in0.0 mm 0.00 in0.0 mm
08:44 PM 35.6°F2.0°C 28.4°F-2.0°C 75% 0.4 mph SW0.6 kmh SW 2.0 mph3.2 kmh 30.27 in1025.1 mb 0.00 in0.0 mm 0.00 in0.0 mm 0.00 in0.0 mm
08:49 PM 35.8°F2.1°C 28.6°F-1.9°C 75% 0.7 mph W1.1 kmh W 2.2 mph3.5 kmh 30.27 in1025.1 mb 0.00 in0.0 mm 0.00 in0.0 mm 0.00 in0.0 mm
08:54 PM 35.8°F2.1°C 28.6°F-1.9°C 75% 0.9 mph N1.4 kmh N 1.8 mph2.9 kmh 30.27 in1025.1 mb 0.00 in0.0 mm 0.00 in0.0 mm 0.00 in0.0 mm
08:59 PM 35.6°F2.0°C 28.2°F-2.1°C 74% 3.6 mph N5.8 kmh N 7.6 mph12.2 kmh 30.27 in1025.1 mb 0.00 in0.0 mm 0.00 in0.0 mm 0.00 in0.0 mm
09:04 PM 36.0°F2.2°C 28.4°F-2.0°C 74% 2.2 mph N3.5 kmh N 4.3 mph6.9 kmh 30.27 in1025.1 mb 0.00 in0.0 mm 0.00 in0.0 mm 0.00 in0.0 mm
09:09 PM 36.0°F2.2°C 28.2°F-2.1°C 73% 4.3 mph W6.9 kmh W 8.5 mph13.7 kmh 30.27 in1025.1 mb 0.00 in0.0 mm 0.00 in0.0 mm 0.00 in0.0 mm
09:14 PM 36.1°F2.3°C 28.4°F-2.0°C 73% 1.8 mph WSW2.9 kmh WSW 5.1 mph8.2 kmh 30.28 in1025.4 mb 0.00 in0.0 mm 0.00 in0.0 mm 0.00 in0.0 mm
09:19 PM 36.1°F2.3°C 28.4°F-2.0°C 73% 3.1 mph W5.0 kmh W 5.6 mph9.0 kmh 30.28 in1025.4 mb 0.00 in0.0 mm 0.00 in0.0 mm 0.00 in0.0 mm
09:24 PM 36.1°F2.3°C 28.4°F-2.0°C 73% 1.3 mph NNW2.1 kmh NNW 3.4 mph5.5 kmh 30.27 in1025.1 mb 0.00 in0.0 mm 0.00 in0.0 mm 0.00 in0.0 mm
09:29 PM 36.0°F2.2°C 28.2°F-2.1°C 73% 1.8 mph N2.9 kmh N 2.7 mph4.3 kmh 30.27 in1025.1 mb 0.00 in0.0 mm 0.00 in0.0 mm 0.00 in0.0 mm
09:34 PM 36.0°F2.2°C 28.2°F-2.1°C 73% 1.8 mph WSW2.9 kmh WSW 3.6 mph5.8 kmh 30.27 in1025.1 mb 0.00 in0.0 mm 0.00 in0.0 mm 0.00 in0.0 mm
09:39 PM 36.0°F2.2°C 28.2°F-2.1°C 73% 2.0 mph NW3.2 kmh NW 4.5 mph7.2 kmh 30.27 in1025.1 mb 0.00 in0.0 mm 0.00 in0.0 mm 0.00 in0.0 mm
09:44 PM 36.0°F2.2°C 28.2°F-2.1°C 73% 1.6 mph SW2.6 kmh SW 3.6 mph5.8 kmh 30.28 in1025.4 mb 0.00 in0.0 mm 0.00 in0.0 mm 0.00 in0.0 mm
09:49 PM 36.0°F2.2°C 28.2°F-2.1°C 73% 1.8 mph W2.9 kmh W 3.4 mph5.5 kmh 30.28 in1025.4 mb 0.00 in0.0 mm 0.00 in0.0 mm 0.00 in0.0 mm
09:54 PM 36.0°F2.2°C 28.4°F-2.0°C 74% 1.1 mph S1.8 kmh S 2.0 mph3.2 kmh 30.28 in1025.4 mb 0.00 in0.0 mm 0.00 in0.0 mm 0.00 in0.0 mm
09:59 PM 35.8°F2.1°C 28.0°F-2.2°C 73% 1.6 mph W2.6 kmh W 4.7 mph7.6 kmh 30.29 in1025.7 mb 0.00 in0.0 mm 0.00 in0.0 mm 0.00 in0.0 mm
10:04 PM 35.8°F2.1°C 28.2°F-2.1°C 74% 2.0 mph NW3.2 kmh NW 4.0 mph6.4 kmh 30.29 in1025.7 mb 0.00 in0.0 mm 0.00 in0.0 mm 0.00 in0.0 mm
10:09 PM 35.8°F2.1°C 28.2°F-2.1°C 74% 2.0 mph SSW3.2 kmh SSW 5.4 mph8.7 kmh 30.29 in1025.7 mb 0.00 in0.0 mm 0.00 in0.0 mm 0.00 in0.0 mm
10:14 PM 35.8°F2.1°C 28.2°F-2.1°C 74% 1.8 mph N2.9 kmh N 2.7 mph4.3 kmh 30.29 in1025.7 mb 0.00 in0.0 mm 0.00 in0.0 mm 0.00 in0.0 mm
10:19 PM 35.6°F2.0°C 28.2°F-2.1°C 74% 2.5 mph WNW4.0 kmh WNW 4.5 mph7.2 kmh 30.29 in1025.7 mb 0.00 in0.0 mm 0.00 in0.0 mm 0.00 in0.0 mm
10:24 PM 35.4°F1.9°C 28.0°F-2.2°C 74% 3.1 mph W5.0 kmh W 6.9 mph11.1 kmh 30.30 in1026.1 mb 0.00 in0.0 mm 0.00 in0.0 mm 0.00 in0.0 mm
10:29 PM 35.4°F1.9°C 28.0°F-2.2°C 74% 1.8 mph W2.9 kmh W 4.9 mph7.9 kmh 30.30 in1026.1 mb 0.00 in0.0 mm 0.00 in0.0 mm 0.00 in0.0 mm
10:34 PM 35.6°F2.0°C 28.2°F-2.1°C 74% 2.5 mph W4.0 kmh W 5.4 mph8.7 kmh 30.29 in1025.7 mb 0.00 in0.0 mm 0.00 in0.0 mm 0.00 in0.0 mm
10:39 PM 35.4°F1.9°C 28.0°F-2.2°C 74% 1.3 mph W2.1 kmh W 2.9 mph4.7 kmh 30.30 in1026.1 mb 0.00 in0.0 mm 0.00 in0.0 mm 0.00 in0.0 mm
10:44 PM 35.4°F1.9°C 28.2°F-2.1°C 75% 0.4 mph N0.6 kmh N 2.2 mph3.5 kmh 30.30 in1026.1 mb 0.00 in0.0 mm 0.00 in0.0 mm 0.00 in0.0 mm
10:49 PM 35.2°F1.8°C 28.0°F-2.2°C 75% 1.8 mph WSW2.9 kmh WSW 2.9 mph4.7 kmh 30.30 in1026.1 mb 0.00 in0.0 mm 0.00 in0.0 mm 0.00 in0.0 mm
10:54 PM 35.2°F1.8°C 27.9°F-2.3°C 74% 1.6 mph N2.6 kmh N 2.7 mph4.3 kmh 30.31 in1026.4 mb 0.00 in0.0 mm 0.00 in0.0 mm 0.00 in0.0 mm
10:59 PM 35.2°F1.8°C 27.9°F-2.3°C 74% 1.8 mph WNW2.9 kmh WNW 4.0 mph6.4 kmh 30.31 in1026.4 mb 0.00 in0.0 mm 0.00 in0.0 mm 0.00 in0.0 mm
11:04 PM 35.2°F1.8°C 27.9°F-2.3°C 74% 2.2 mph NNW3.5 kmh NNW 4.0 mph6.4 kmh 30.31 in1026.4 mb 0.00 in0.0 mm 0.00 in0.0 mm 0.00 in0.0 mm
11:09 PM 35.2°F1.8°C 27.9°F-2.3°C 74% 1.1 mph NW1.8 kmh NW 2.5 mph4.0 kmh 30.32 in1026.8 mb 0.00 in0.0 mm 0.00 in0.0 mm 0.00 in0.0 mm
11:14 PM 35.1°F1.7°C 27.7°F-2.4°C 74% 3.1 mph WNW5.0 kmh WNW 5.4 mph8.7 kmh 30.32 in1026.8 mb 0.00 in0.0 mm 0.00 in0.0 mm 0.00 in0.0 mm
11:19 PM 35.1°F1.7°C 27.7°F-2.4°C 74% 0.2 mph WNW0.3 kmh WNW 1.3 mph2.1 kmh 30.32 in1026.8 mb 0.00 in0.0 mm 0.00 in0.0 mm 0.00 in0.0 mm
11:24 PM 35.1°F1.7°C 27.7°F-2.4°C 74% 1.3 mph WSW2.1 kmh WSW 2.7 mph4.3 kmh 30.32 in1026.8 mb 0.00 in0.0 mm 0.00 in0.0 mm 0.00 in0.0 mm
11:29 PM 35.1°F1.7°C 27.7°F-2.4°C 74% 1.1 mph NE1.8 kmh NE 1.6 mph2.6 kmh 30.33 in1027.1 mb 0.00 in0.0 mm 0.00 in0.0 mm 0.00 in0.0 mm
11:34 PM 35.1°F1.7°C 27.7°F-2.4°C 74% 3.6 mph N5.8 kmh N 4.9 mph7.9 kmh 30.33 in1027.1 mb 0.00 in0.0 mm 0.00 in0.0 mm 0.00 in0.0 mm
11:39 PM 34.9°F1.6°C 27.5°F-2.5°C 74% 2.0 mph N3.2 kmh N 3.4 mph5.5 kmh 30.33 in1027.1 mb 0.00 in0.0 mm 0.00 in0.0 mm 0.00 in0.0 mm
11:44 PM 34.9°F1.6°C 27.5°F-2.5°C 74% 2.2 mph NNE3.5 kmh NNE 4.3 mph6.9 kmh 30.34 in1027.4 mb 0.00 in0.0 mm 0.00 in0.0 mm 0.00 in0.0 mm
11:49 PM 34.9°F1.6°C 27.5°F-2.5°C 74% 1.1 mph NW1.8 kmh NW 2.9 mph4.7 kmh 30.34 in1027.4 mb 0.00 in0.0 mm 0.00 in0.0 mm 0.00 in0.0 mm
11:54 PM 35.1°F1.7°C 27.7°F-2.4°C 74% 1.1 mph N1.8 kmh N 2.7 mph4.3 kmh 30.34 in1027.4 mb 0.00 in0.0 mm 0.00 in0.0 mm 0.00 in0.0 mm
11:59 PM 35.1°F1.7°C 27.3°F-2.6°C 73% 2.9 mph WSW4.7 kmh WSW 5.8 mph9.3 kmh 30.33 in1027.1 mb 0.00 in0.0 mm 0.00 in0.0 mm 0.00 in0.0 mm